Kezdőlap
METAR-TAF:

METAR-TAF

Repülőterek :

Pocono Mountains Municipal Airport

Mount Pocono, Pennsylvania, Amerikai Egyesült Államok

földrajzi szélesség: 41-08-20N, földrajzi hosszúság: 075-23-46W, magasság: 584 m

Jelenlegi meteorológiai megfigyelések

A jelentés 14 perccel ezelõtt készült, 00:07 UTC
Déli szél 8 kt széllökések: 17 kt
Hőmérséklet -7°C
Páratartalom 93%
Légköri nyomás 1010 hPa
Látótávolság: 2.4 km
Borult 500 lábon
ismeretlen, Párásság

METAR: KMPO 190007Z AUTO 17008G17KT 1 1/2SM UP BR OVC005 M07/M08 A2983 RMK AO2 UPB2354SNE2354B2355E06 P0001 T10671078

Idő: 19:21 (00:21 UTC)


TAF: hiányzik

Meteorológiai megfigyelések és előrejelzések több, mint 4000 repülőtéren (METAR és TAF jelentéseket).

A térképen piros és sárga pontok jelzik az elérhető meteorológiai állomásokat.

Mozgassa az egeret a pont fölött, hogy megjelenjen az állomás neve.

Azután kattintson az időjárási megfigyelések és előrejelzések megtekintéséhez.

A térkép megváltoztatása: kattintson a fekete keresztel jelölt zöld gombra ráközelítéshez, a vonallal jelölt zöld gombra távolításhoz, vagy a zöld nyilakra a szomszédos térképek eléréséhez.


METAR-TAF: